Flight Track Log - Related Links

Times and Time Zones

All times are in EDT time to prevent confusion due to time zone crossing. See the JBU33 flight status page for this flight to view local times or setup timezone preferences in your user account.

Time Position Orientation Groundspeed Altitude Reporting Facility
EDT Latitude Longitude Course Direction KTS MPH feet Rate Location/Type
Sun 01:25:00 PM 44.3925 -73.1403 196° South 181 208 4,500  Level Boston Center
Sun 01:26:00 PM 44.3361 -73.1483 186° South 204 235 7,800 3,000 Climbing Boston Center
Sun 01:27:00 PM 44.2569 -73.1561 184° South 247 284 10,500 2,250 Climbing Boston Center
Sun 01:28:00 PM 44.0634 -73.3011 194° South  Level FlightAware Approximate
Sun 01:28:00 PM 44.1672 -73.1664 185° South 307 353 12,300  Level Boston Center
Sun 01:29:00 PM 43.9818 -73.3283 194° South  Level FlightAware Approximate
Sun 01:29:00 PM 44.0756 -73.1856 189° South 340 391 15,100  Level Boston Center
Sun 01:30:00 PM 43.9004 -73.3565 196° South  Level FlightAware Approximate
Sun 01:30:00 PM 43.9794 -73.2192 194° South 353 406 17,500  Level Boston Center
Sun 01:31:00 PM 43.8731 -73.2494 192° South 375 432 19,300 1,950 Climbing Boston Center
Sun 01:32:00 PM 43.7644 -73.2794 191° South 395 455 21,400 1,900 Climbing Boston Center
Sun 01:33:00 PM 43.6497 -73.3094 191° South 417 480 23,100 1,300 Climbing Boston Center
Sun 01:34:00 PM 43.5306 -73.3422 191° South 429 494 24,000 650 Climbing Boston Center
Sun 01:35:00 PM 43.4117 -73.3719 190° South 434 499 24,400 950 Climbing Boston Center
Sun 01:36:00 PM 43.2925 -73.4042 191° South 434 499 25,900 800 Climbing Boston Center
Sun 01:37:00 PM 43.1692 -73.4364 191° South 440 506 26,000 100 Climbing Boston Center
Sun 01:38:00 PM 43.0586 -73.4686 192° South 451 519 26,100 1,000 Climbing Boston Center
Sun 01:39:00 PM 42.9372 -73.5008 191° South 451 519 28,000 950 Climbing Boston Center
Sun 01:40:00 PM 42.8036 -73.5353 191° South 451 519 28,000  Level Boston Center
Sun 01:41:00 PM 42.6761 -73.5697 191° South 456 525 28,000  Level Boston Center
Sun 01:42:00 PM 42.5528 -73.6011 191° South 456 525 28,000  Level Boston Center
Sun 01:43:12 PM 42.4275 -73.6356 191° South 456 525 28,000  Level Boston Center
Sun 01:44:12 PM 42.2897 -73.6639 189° South 461 531 28,000  Level Boston Center
Sun 01:45:12 PM 42.1664 -73.6922 190° South 456 525 28,000  Level Boston Center
Sun 01:46:12 PM 42.0261 -73.7342 193° South 470 541 28,000  Level Boston Center
Sun 01:47:12 PM 41.9089 -73.7931 201° Southwest 464 534 28,000 -150 Level Boston Center
Sun 01:48:12 PM 41.8406 -73.9225 235° Southwest 423 487 27,700 -1,221 Descending Boston Center
Sun 01:50:04 PM 41.6497 -74.0275 202° Southwest 426 490 24,500 -1,500 Descending New York Center
Sun 01:51:04 PM 41.5369 -74.0414 185° South 399 459 23,400 -1,700 Descending New York Center
Sun 01:52:04 PM 41.4367 -74.0558 186° South 375 432 21,100 -1,686 Descending New York Center
Sun 01:53:05 PM 41.3500 -74.1014 202° Southwest 336 387 20,000 -545 Descending New York Center
Sun 01:54:05 PM 41.3183 -74.1853 243° Southwest 299 344 20,000  Level New York Center
Sun 01:55:06 PM 41.2544 -74.3036 234° Southwest 314 361 20,000  Level New York Center
Sun 01:56:06 PM 41.1917 -74.3883 225° Southwest 321 369 20,000  Level New York Center
Sun 01:57:04 PM 41.1264 -74.4731 224° Southwest 326 375 20,000  Level New York Center
Sun 01:58:04 PM 41.0328 -74.4736 180° South 305 351 20,000 -197 Level New York Center
Sun 01:59:06 PM 40.9753 -74.3769 128° Southeast 263 303 19,600 -391 Descending New York Center
Sun 01:59:36 PM 40.9500 -74.3167 119° Southeast 347 399 19,400 -400 Descending New York TRACON
Sun 02:00:36 PM 40.9167 -74.2000 111° Southeast 343 395 19,000 -750 Descending New York TRACON
Sun 02:01:36 PM 40.8667 -74.0833 120° Southeast 335 386 17,900 -1,250 Descending New York TRACON
Sun 02:02:36 PM 40.8333 -73.9833 114° Southeast 321 369 16,500 -1,000 Descending New York TRACON
Sun 02:03:36 PM 40.7833 -73.8667 119° Southeast 316 364 15,900 -1,096 Descending New York TRACON
Sun 02:04:31 PM 40.7500 -73.7833 118° Southeast 325 374 14,400 -1,513 Descending New York TRACON
Sun 02:05:31 PM 40.7167 -73.6833 114° Southeast 328 377 13,000 -706 Descending New York TRACON
Sun 02:06:30 PM 40.6667 -73.5833 123° Southeast 316 364 13,000 -655 Level New York TRACON
Sun 02:07:30 PM 40.6000 -73.5333 150° Southeast 302 348 11,700 -1,537 Descending New York TRACON
Sun 02:08:31 PM 40.5167 -73.5333 180° South 298 343 9,900 -1,785 Descending New York TRACON
Sun 02:09:31 PM 40.4500 -73.5667 201° Southwest 285 328 8,100 -912 Descending New York TRACON
Sun 02:10:36 PM 40.3667 -73.6333 211° Southwest 287 330 8,000 -750 Descending New York TRACON
Sun 02:11:31 PM 40.3500 -73.7000 252° West 273 314 6,600 -1,789 Descending New York TRACON
Sun 02:12:30 PM 40.3667 -73.8000 282° West 266 306 4,600 -1,361 Descending New York TRACON
Sun 02:13:30 PM 40.4000 -73.8833 298° West 226 260 3,900 -800 Descending New York TRACON
Sun 02:14:30 PM 40.4333 -73.9500 303° West 223 257 3,000 -470 Descending New York TRACON
Sun 02:15:25 PM 40.4833 -73.9667 346° North 220 253 3,000 -50 Level New York TRACON
Sun 02:16:30 PM 40.5333 -73.9500 14° North 198 228 2,900 -384 Descending New York TRACON
Sun 02:17:30 PM 40.5833 -73.9167 27° Northeast 195 224 2,200 -700 Descending New York TRACON
Sun 02:18:30 PM 40.6333 -73.8833 27° Northeast 185 213 1,500 -650 Descending New York TRACON
Sun 02:19:30 PM 40.6667 -73.8500 37° Northeast 143 165 900 -600 Descending New York TRACON

Login

Don't have an account? Register now (free) for customized features, flight alerts, and more!